createdAt,value
2022-09-04T00:01:53.502Z,7.10
2022-09-04T00:04:30.684Z,7.28
2022-09-04T00:07:10.798Z,7.25
2022-09-04T00:09:45.383Z,6.85
2022-09-04T00:12:15.211Z,7.28
2022-09-04T00:14:47.576Z,7.25
2022-09-04T00:17:23.344Z,7.50
2022-09-04T00:19:56.467Z,8.02
2022-09-04T00:22:33.190Z,8.57
2022-09-04T00:25:08.175Z,6.50
2022-09-04T00:27:44.823Z,7.80
2022-09-04T00:30:17.481Z,8.00
2022-09-04T00:32:54.878Z,8.25
2022-09-04T00:35:25.404Z,6.93
2022-09-04T00:37:59.105Z,7.28
2022-09-04T00:40:31.270Z,7.28
2022-09-04T00:43:26.177Z,7.13
2022-09-04T00:46:40.799Z,7.30
2022-09-04T00:49:36.665Z,7.90
2022-09-04T00:52:12.637Z,8.00
2022-09-04T00:54:51.529Z,7.95
2022-09-04T00:58:01.297Z,8.23
2022-09-04T01:00:30.901Z,7.73
2022-09-04T01:03:20.491Z,8.87
2022-09-04T01:06:05.661Z,8.63
2022-09-04T01:08:43.747Z,8.30
2022-09-04T01:11:16.337Z,8.40
2022-09-04T01:13:47.057Z,7.90
2022-09-04T01:16:22.849Z,8.57
2022-09-04T01:18:56.697Z,7.93
2022-09-04T01:21:47.994Z,7.85
2022-09-04T01:24:57.990Z,7.75
2022-09-04T01:27:29.955Z,8.25
2022-09-04T01:30:06.083Z,8.50
2022-09-04T01:32:44.044Z,8.02
2022-09-04T01:35:22.527Z,7.97
2022-09-04T01:37:59.845Z,8.32
2022-09-04T01:40:36.214Z,8.02
2022-09-04T01:43:11.400Z,7.90
2022-09-04T01:45:54.107Z,8.52
2022-09-04T01:48:30.121Z,9.23
2022-09-04T01:51:04.435Z,7.70
2022-09-04T01:53:34.553Z,8.07
2022-09-04T01:56:11.375Z,9.20
2022-09-04T01:58:47.294Z,8.90
2022-09-04T02:01:21.364Z,8.43
2022-09-04T02:03:57.973Z,8.55
2022-09-04T02:06:33.958Z,8.68
2022-09-04T02:09:11.714Z,9.20
2022-09-04T02:11:42.493Z,9.48
2022-09-04T02:14:17.982Z,9.63
2022-09-04T02:16:57.085Z,9.65
2022-09-04T02:19:36.402Z,9.63
2022-09-04T02:22:13.051Z,9.73
2022-09-04T02:24:48.119Z,10.43
2022-09-04T02:27:21.398Z,8.73
2022-09-04T02:29:55.218Z,9.25
2022-09-04T02:32:27.269Z,9.27
2022-09-04T02:34:59.804Z,8.85
2022-09-04T02:37:34.272Z,10.20
2022-09-04T02:40:12.076Z,9.32
2022-09-04T02:42:46.855Z,9.18
2022-09-04T02:45:22.707Z,9.38
2022-09-04T02:47:54.790Z,9.45
2022-09-04T02:50:38.582Z,8.95
2022-09-04T02:53:18.315Z,9.38
2022-09-04T02:56:09.776Z,9.25
2022-09-04T02:58:50.139Z,9.43
2022-09-04T03:01:25.840Z,9.52
2022-09-04T03:04:01.840Z,8.85
2022-09-04T03:06:48.525Z,10.35
2022-09-04T03:09:22.496Z,10.77
2022-09-04T03:11:56.608Z,9.85
2022-09-04T03:14:34.533Z,10.18
2022-09-04T03:17:11.220Z,10.20
2022-09-04T03:19:45.160Z,9.18
2022-09-04T03:22:17.890Z,9.45
2022-09-04T03:25:08.608Z,10.10
2022-09-04T03:27:37.554Z,10.30
2022-09-04T03:30:08.963Z,11.38
2022-09-04T03:32:46.468Z,9.85
2022-09-04T03:35:22.717Z,10.55
2022-09-04T03:38:02.072Z,9.63
2022-09-04T03:40:39.300Z,10.13
2022-09-04T03:43:19.902Z,9.98
2022-09-04T03:48:33.867Z,10.98
2022-09-04T03:51:08.892Z,10.48
2022-09-04T03:53:42.329Z,10.60
2022-09-04T03:56:30.145Z,11.48
2022-09-04T03:59:03.469Z,10.77
2022-09-04T04:01:42.654Z,10.70
2022-09-04T04:04:42.472Z,10.32
2022-09-04T04:07:14.634Z,10.10
2022-09-04T04:09:52.527Z,10.82
2022-09-04T04:12:39.397Z,11.13
2022-09-04T04:15:46.551Z,13.00
2022-09-04T04:18:28.052Z,11.63
2022-09-04T04:21:02.891Z,12.02
2022-09-04T04:23:56.994Z,11.68
2022-09-04T04:26:40.758Z,12.18
2022-09-04T04:29:26.681Z,12.27
2022-09-04T04:32:13.546Z,12.55
2022-09-04T04:34:58.195Z,12.27
2022-09-04T04:37:38.557Z,12.80
2022-09-04T04:40:12.307Z,12.38
2022-09-04T04:42:49.498Z,11.88
2022-09-04T04:45:42.763Z,12.32
2022-09-04T04:48:53.306Z,12.55
2022-09-04T04:54:15.035Z,11.75
2022-09-04T04:56:49.578Z,12.00
2022-09-04T04:59:24.697Z,12.68
2022-09-04T05:02:00.753Z,12.40
2022-09-04T05:04:37.388Z,12.30
2022-09-04T05:07:12.501Z,12.40
2022-09-04T05:09:49.155Z,12.68
2022-09-04T05:12:24.848Z,12.15
2022-09-04T05:14:59.482Z,13.15
2022-09-04T05:17:33.488Z,12.48
2022-09-04T05:20:21.794Z,12.75
2022-09-04T05:22:56.468Z,12.88
2022-09-04T05:25:32.033Z,12.60
2022-09-04T05:28:08.488Z,13.80
2022-09-04T05:30:45.246Z,12.80
2022-09-04T05:33:21.277Z,14.18
2022-09-04T05:35:53.250Z,12.30
2022-09-04T05:38:28.176Z,12.15
2022-09-04T05:41:07.994Z,11.95
2022-09-04T05:43:51.722Z,13.35
2022-09-04T05:46:31.536Z,11.00
2022-09-04T05:49:02.818Z,11.85
2022-09-04T05:52:01.334Z,12.10
2022-09-04T05:54:54.134Z,11.05
2022-09-04T05:57:29.547Z,12.13
2022-09-04T06:00:06.632Z,10.65
2022-09-04T06:03:12.274Z,11.70
2022-09-04T06:05:46.454Z,11.20
2022-09-04T06:08:33.158Z,11.98
2022-09-04T06:11:23.776Z,10.60
2022-09-04T06:14:10.303Z,11.48
2022-09-04T06:16:51.383Z,12.05
2022-09-04T06:19:32.457Z,10.70
2022-09-04T06:22:25.481Z,10.52
2022-09-04T06:25:21.110Z,10.07
2022-09-04T06:28:12.823Z,10.27
2022-09-04T06:30:50.856Z,10.13
2022-09-04T06:33:27.638Z,10.15
2022-09-04T06:36:05.805Z,9.05
2022-09-04T06:38:44.037Z,9.35
2022-09-04T06:41:30.639Z,9.68
2022-09-04T06:44:07.471Z,9.85
2022-09-04T06:46:41.966Z,9.55
2022-09-04T06:49:15.510Z,8.85
2022-09-04T06:51:57.045Z,9.07
2022-09-04T06:54:34.310Z,7.57
2022-09-04T06:57:20.839Z,6.63
2022-09-04T07:00:06.055Z,7.35
2022-09-04T07:03:09.574Z,7.40
2022-09-04T07:05:44.167Z,7.40
2022-09-04T07:08:17.992Z,7.15
2022-09-04T07:10:50.112Z,6.53
2022-09-04T07:14:01.351Z,5.63
2022-09-04T07:16:42.530Z,5.18
2022-09-04T07:19:40.495Z,5.35
2022-09-04T07:22:22.182Z,5.90
2022-09-04T07:25:08.757Z,5.35
2022-09-04T07:27:48.508Z,5.07
2022-09-04T07:30:18.470Z,5.45
2022-09-04T07:32:52.687Z,5.35
2022-09-04T07:35:25.737Z,5.20
2022-09-04T07:37:58.940Z,4.60
2022-09-04T07:40:31.851Z,4.43
2022-09-04T07:43:07.913Z,4.88
2022-09-04T07:45:39.250Z,4.00
2022-09-04T07:48:17.248Z,4.10
2022-09-04T07:51:03.786Z,3.97
2022-09-04T07:53:46.569Z,3.80
2022-09-04T07:56:19.467Z,3.75
2022-09-04T07:59:27.805Z,4.10
2022-09-04T08:02:17.047Z,3.85
2022-09-04T08:05:05.764Z,3.85
2022-09-04T08:07:54.771Z,4.57
2022-09-04T08:10:30.500Z,4.13
2022-09-04T08:13:14.179Z,4.22
2022-09-04T08:15:46.377Z,3.60
2022-09-04T08:18:35.574Z,4.43
2022-09-04T08:21:14.259Z,3.75
2022-09-04T08:24:07.754Z,3.70
2022-09-04T08:26:41.551Z,2.95
2022-09-04T08:29:21.765Z,3.90
2022-09-04T08:31:55.915Z,4.20
2022-09-04T08:34:59.724Z,3.80
2022-09-04T08:37:29.623Z,3.85
2022-09-04T08:40:24.522Z,3.85
2022-09-04T08:43:06.596Z,3.42
2022-09-04T08:45:55.380Z,3.22
2022-09-04T08:48:52.290Z,3.95
2022-09-04T08:52:11.499Z,4.03
2022-09-04T08:55:11.627Z,3.45
2022-09-04T09:00:15.332Z,3.47
2022-09-04T09:03:11.065Z,3.05
2022-09-04T09:06:19.328Z,3.08
2022-09-04T09:09:17.658Z,3.55
2022-09-04T09:12:15.886Z,3.58
2022-09-04T09:15:19.942Z,3.60
2022-09-04T09:18:02.447Z,3.47
2022-09-04T09:20:32.850Z,3.50
2022-09-04T09:23:18.391Z,3.63
2022-09-04T09:25:54.420Z,4.57
2022-09-04T09:28:56.564Z,3.78
2022-09-04T09:32:05.053Z,4.05
2022-09-04T09:34:54.876Z,4.07
2022-09-04T09:37:50.428Z,3.80
2022-09-04T09:40:40.229Z,3.70
2022-09-04T09:43:24.506Z,4.45
2022-09-04T09:46:40.693Z,3.90
2022-09-04T09:49:47.841Z,4.15
2022-09-04T09:52:57.619Z,4.22
2022-09-04T09:56:04.606Z,3.67
2022-09-04T09:58:55.654Z,4.55
2022-09-04T10:01:44.169Z,4.35
2022-09-04T10:04:55.956Z,4.45
2022-09-04T10:07:48.260Z,3.88
2022-09-04T10:10:29.339Z,4.38
2022-09-04T10:13:33.849Z,4.28
2022-09-04T10:16:48.172Z,4.50
2022-09-04T10:20:01.802Z,4.10
2022-09-04T10:22:57.191Z,4.70
2022-09-04T10:25:51.900Z,4.85
2022-09-04T10:28:42.411Z,5.18
2022-09-04T10:31:32.097Z,5.10
2022-09-04T10:34:14.791Z,5.05
2022-09-04T10:36:49.399Z,5.20
2022-09-04T10:39:49.262Z,5.47
2022-09-04T10:42:27.902Z,5.95
2022-09-04T10:45:15.445Z,6.30
2022-09-04T10:48:06.130Z,7.00
2022-09-04T10:51:02.105Z,5.65
2022-09-04T10:53:49.942Z,5.15
2022-09-04T10:56:24.464Z,5.15
2022-09-04T10:59:21.391Z,5.68
2022-09-04T11:02:22.439Z,5.35
2022-09-04T11:05:20.793Z,5.82
2022-09-04T11:08:19.293Z,6.07
2022-09-04T11:10:59.509Z,5.78
2022-09-04T11:13:58.341Z,5.30
2022-09-04T11:16:51.595Z,4.90
2022-09-04T11:19:45.089Z,5.15
2022-09-04T11:22:40.906Z,5.35
2022-09-04T11:25:42.838Z,5.80
2022-09-04T11:28:52.698Z,5.18
2022-09-04T11:31:40.035Z,5.30
2022-09-04T11:34:33.264Z,5.13
2022-09-04T11:37:40.389Z,4.57
2022-09-04T11:40:32.773Z,4.22
2022-09-04T11:43:20.034Z,5.03
2022-09-04T11:46:00.610Z,4.85
2022-09-04T11:49:09.480Z,4.20
2022-09-04T11:55:14.240Z,4.53
2022-09-04T11:57:53.625Z,4.57
2022-09-04T12:00:22.628Z,4.28
2022-09-04T12:03:11.274Z,3.95
2022-09-04T12:05:56.880Z,4.50
2022-09-04T12:08:54.750Z,5.20
2022-09-04T12:11:37.340Z,4.82
2022-09-04T12:14:16.239Z,4.57
2022-09-04T12:17:17.481Z,4.97
2022-09-04T12:20:04.180Z,4.70
2022-09-04T12:23:23.683Z,4.75
2022-09-04T12:26:14.993Z,4.97
2022-09-04T12:29:13.385Z,4.82
2022-09-04T12:32:17.793Z,4.80
2022-09-04T12:35:32.068Z,4.63
2022-09-04T12:38:24.642Z,4.28
2022-09-04T12:41:00.074Z,4.90
2022-09-04T12:43:41.861Z,4.13
2022-09-04T12:46:19.968Z,3.95
2022-09-04T12:49:02.493Z,4.00
2022-09-04T12:51:36.443Z,4.40
2022-09-04T12:54:14.619Z,4.07
2022-09-04T12:56:49.108Z,4.10
2022-09-04T12:59:34.727Z,3.80
2022-09-04T13:02:07.410Z,4.00
2022-09-04T13:04:45.588Z,3.83
2022-09-04T13:07:27.644Z,4.70
2022-09-04T13:10:05.392Z,4.10
2022-09-04T13:12:41.150Z,4.15
2022-09-04T13:15:22.553Z,4.35
2022-09-04T13:17:58.364Z,4.40
2022-09-04T13:20:35.971Z,4.57
2022-09-04T13:23:27.027Z,5.10
2022-09-04T13:26:16.668Z,4.45
2022-09-04T13:28:54.067Z,4.65
2022-09-04T13:31:36.304Z,5.38
2022-09-04T13:34:13.411Z,4.60
2022-09-04T13:36:54.274Z,4.25
2022-09-04T13:39:43.995Z,4.93
2022-09-04T13:42:42.548Z,4.55
2022-09-04T13:45:15.271Z,3.85
2022-09-04T13:47:49.800Z,4.13
2022-09-04T13:50:25.931Z,4.57
2022-09-04T13:52:58.118Z,4.53
2022-09-04T13:55:29.263Z,4.60
2022-09-04T13:58:10.651Z,4.05
2022-09-04T14:00:45.969Z,4.75
2022-09-04T14:03:27.508Z,4.85
2022-09-04T14:05:56.453Z,4.32
2022-09-04T14:08:30.138Z,5.55
2022-09-04T14:11:37.444Z,4.75
2022-09-04T14:14:37.664Z,4.30
2022-09-04T14:19:47.517Z,4.45
2022-09-04T14:22:27.569Z,5.13
2022-09-04T14:27:47.821Z,4.40
2022-09-04T14:30:18.341Z,4.55
2022-09-04T14:33:05.023Z,4.63
2022-09-04T14:35:46.732Z,4.25
2022-09-04T14:38:35.332Z,4.75
2022-09-04T14:41:13.367Z,4.30
2022-09-04T14:43:49.066Z,4.03
2022-09-04T14:46:26.456Z,4.00
2022-09-04T14:49:03.891Z,4.40
2022-09-04T14:51:35.838Z,3.58
2022-09-04T14:54:05.517Z,3.95
2022-09-04T14:56:36.746Z,3.40
2022-09-04T14:59:13.447Z,3.50
2022-09-04T15:01:59.748Z,3.50
2022-09-04T15:04:35.127Z,2.95
2022-09-04T15:07:18.130Z,3.30
2022-09-04T15:09:49.769Z,3.35
2022-09-04T15:12:24.691Z,3.35
2022-09-04T15:14:57.700Z,3.38
2022-09-04T15:17:29.894Z,3.72
2022-09-04T15:20:03.391Z,3.90
2022-09-04T15:22:38.032Z,4.15
2022-09-04T15:25:09.520Z,3.53
2022-09-04T15:27:45.186Z,3.08
2022-09-04T15:30:20.306Z,4.00
2022-09-04T15:32:49.999Z,3.47
2022-09-04T15:35:23.521Z,3.22
2022-09-04T15:37:54.234Z,3.40
2022-09-04T15:40:29.407Z,4.07
2022-09-04T15:43:04.067Z,3.72
2022-09-04T15:45:41.569Z,3.72
2022-09-04T15:48:42.094Z,3.75
2022-09-04T15:51:21.003Z,3.70
2022-09-04T15:53:55.199Z,5.25
2022-09-04T15:56:32.387Z,3.88
2022-09-04T15:59:08.574Z,3.97
2022-09-04T16:01:46.114Z,4.00
2022-09-04T16:04:23.434Z,3.88
2022-09-04T16:06:57.830Z,4.43
2022-09-04T16:09:31.834Z,5.03
2022-09-04T16:12:05.370Z,3.97
2022-09-04T16:14:44.422Z,4.30
2022-09-04T16:17:17.608Z,4.78
2022-09-04T16:19:53.418Z,3.92
2022-09-04T16:22:30.887Z,4.13
2022-09-04T16:25:11.253Z,3.80
2022-09-04T16:27:46.501Z,4.78
2022-09-04T16:30:33.149Z,4.22
2022-09-04T16:33:03.018Z,3.65
2022-09-04T16:35:35.746Z,4.00
2022-09-04T16:38:14.916Z,4.07
2022-09-04T16:40:48.739Z,3.65
2022-09-04T16:43:27.925Z,3.97
2022-09-04T16:46:08.841Z,4.28
2022-09-04T16:48:43.810Z,4.43
2022-09-04T16:51:40.606Z,4.75
2022-09-04T16:54:13.293Z,4.95
2022-09-04T16:56:45.677Z,4.72
2022-09-04T16:59:22.275Z,4.72
2022-09-04T17:01:56.085Z,3.88
2022-09-04T17:04:29.966Z,4.60
2022-09-04T17:07:04.598Z,4.55
2022-09-04T17:09:43.223Z,4.80
2022-09-04T17:12:29.094Z,4.78
2022-09-04T17:15:09.336Z,5.22
2022-09-04T17:17:42.674Z,5.03
2022-09-04T17:20:14.022Z,4.68
2022-09-04T17:28:55.171Z,3.63
2022-09-04T17:29:12.650Z,3.45
2022-09-04T17:29:17.147Z,4.90
2022-09-04T17:31:33.346Z,4.43
2022-09-04T17:40:35.448Z,3.35
2022-09-04T17:40:37.720Z,3.38
2022-09-04T17:40:54.446Z,2.90
2022-09-04T17:42:57.086Z,3.15
2022-09-04T17:45:46.000Z,2.80
2022-09-04T17:48:22.751Z,2.95
2022-09-04T17:50:53.849Z,2.88
2022-09-04T17:53:33.741Z,2.53
2022-09-04T17:56:08.343Z,2.45
2022-09-04T17:58:43.518Z,2.35
2022-09-04T18:01:18.824Z,2.20
2022-09-04T18:04:00.172Z,2.45
2022-09-04T18:06:52.914Z,2.17
2022-09-04T18:09:32.119Z,2.92
2022-09-04T18:12:11.240Z,2.53
2022-09-04T18:14:48.427Z,2.45
2022-09-04T18:17:30.271Z,2.60
2022-09-04T18:20:08.216Z,2.22
2022-09-04T18:23:07.960Z,2.00
2022-09-04T18:25:43.080Z,2.63
2022-09-04T18:28:16.472Z,2.65
2022-09-04T18:37:11.546Z,2.10
2022-09-04T18:37:17.416Z,2.42
2022-09-04T18:37:18.792Z,2.42
2022-09-04T18:39:35.092Z,2.05
2022-09-04T18:46:24.732Z,6.68
2022-09-04T18:50:33.209Z,3.58
2022-09-04T18:50:35.750Z,2.50
2022-09-04T18:53:53.693Z,2.25
2022-09-04T18:56:26.580Z,2.63
2022-09-04T18:58:59.128Z,2.65
2022-09-04T19:01:32.628Z,2.10
2022-09-04T19:04:30.707Z,2.00
2022-09-04T19:07:07.794Z,2.78
2022-09-04T19:10:03.166Z,2.05
2022-09-04T19:12:47.350Z,2.25
2022-09-04T19:15:35.952Z,2.35
2022-09-04T19:18:09.812Z,2.50
2022-09-04T19:20:47.575Z,2.38
2022-09-04T19:23:22.810Z,2.40
2022-09-04T19:25:54.783Z,2.35
2022-09-04T19:28:26.809Z,2.20
2022-09-04T19:30:59.644Z,2.65
2022-09-04T19:33:34.039Z,2.17
2022-09-04T19:36:08.755Z,2.45
2022-09-04T19:44:36.668Z,2.15
2022-09-04T19:46:07.117Z,2.30
2022-09-04T19:46:17.426Z,1.90
2022-09-04T19:47:28.677Z,2.03
2022-09-04T19:53:22.328Z,1.92
2022-09-04T19:53:24.220Z,3.07
2022-09-04T19:55:55.821Z,2.50
2022-09-04T19:58:27.704Z,1.98
2022-09-04T20:00:59.399Z,2.08
2022-09-04T20:03:32.865Z,2.08
2022-09-04T20:06:20.151Z,3.00
2022-09-04T20:09:00.448Z,2.03
2022-09-04T20:11:35.935Z,1.80
2022-09-04T20:14:15.264Z,1.70
2022-09-04T20:16:49.634Z,3.03
2022-09-04T20:19:28.511Z,2.00
2022-09-04T20:22:01.937Z,2.30
2022-09-04T20:24:39.924Z,2.13
2022-09-04T20:27:15.851Z,1.88
2022-09-04T20:29:54.965Z,2.20
2022-09-04T20:32:26.798Z,1.60
2022-09-04T20:34:59.644Z,1.70
2022-09-04T20:37:48.806Z,1.90
2022-09-04T20:40:29.048Z,2.17
2022-09-04T20:43:12.060Z,2.20
2022-09-04T20:48:20.874Z,2.50
2022-09-04T20:52:56.425Z,2.63
2022-09-04T20:53:04.678Z,2.10
2022-09-04T20:54:42.426Z,2.40
2022-09-04T21:00:21.520Z,2.50
2022-09-04T21:03:05.923Z,2.40
2022-09-04T21:03:27.855Z,1.90
2022-09-04T21:06:09.039Z,2.05
2022-09-04T21:08:46.904Z,1.63
2022-09-04T21:11:38.906Z,1.88
2022-09-04T21:14:13.448Z,2.10
2022-09-04T21:17:16.987Z,1.58
2022-09-04T21:20:29.670Z,1.65
2022-09-04T21:23:13.368Z,2.10
2022-09-04T21:25:50.486Z,1.67
2022-09-04T21:29:03.140Z,1.48
2022-09-04T21:32:06.392Z,1.55
2022-09-04T21:34:55.124Z,1.60
2022-09-04T21:37:29.734Z,1.45
2022-09-04T21:40:51.773Z,1.33
2022-09-04T21:43:49.433Z,1.80
2022-09-04T21:46:31.195Z,1.30
2022-09-04T21:49:30.622Z,1.30
2022-09-04T21:52:12.365Z,1.10
2022-09-04T21:59:56.876Z,1.10
2022-09-04T22:02:25.877Z,1.38
2022-09-04T22:02:37.031Z,1.08
2022-09-04T22:03:55.331Z,1.10
2022-09-04T22:08:01.167Z,1.40
2022-09-04T22:13:30.445Z,1.05
2022-09-04T22:13:37.849Z,1.70
2022-09-04T22:15:25.086Z,1.58
2022-09-04T22:18:30.112Z,1.40
2022-09-04T22:21:24.834Z,1.20
2022-09-04T22:24:21.253Z,1.15
2022-09-04T22:27:21.744Z,0.90
2022-09-04T22:30:05.181Z,2.00
2022-09-04T22:33:03.481Z,1.10
2022-09-04T22:36:31.479Z,1.35
2022-09-04T22:39:46.599Z,1.30
2022-09-04T22:42:35.248Z,1.13
2022-09-04T22:45:21.397Z,1.20
2022-09-04T22:47:58.301Z,1.35
2022-09-04T22:50:50.759Z,1.70
2022-09-04T22:53:43.677Z,1.50
2022-09-04T22:56:24.635Z,1.10
2022-09-04T22:59:26.675Z,1.10
2022-09-04T23:02:13.716Z,1.00
2022-09-04T23:05:02.437Z,1.35
2022-09-04T23:13:53.290Z,1.55
2022-09-04T23:13:59.657Z,1.08
2022-09-04T23:14:06.383Z,1.10
2022-09-04T23:16:51.495Z,1.10
2022-09-04T23:22:46.126Z,1.10
2022-09-04T23:26:45.331Z,0.90
2022-09-04T23:26:49.397Z,1.10
2022-09-04T23:29:14.395Z,1.10
2022-09-04T23:32:07.103Z,1.27
2022-09-04T23:35:13.505Z,1.00
2022-09-04T23:38:38.453Z,1.45
2022-09-04T23:45:08.487Z,0.88
2022-09-04T23:48:02.279Z,1.20
2022-09-04T23:50:37.587Z,0.90
2022-09-04T23:53:12.994Z,0.88
2022-09-04T23:55:55.216Z,0.80
2022-09-04T23:58:52.139Z,0.80
